PAYA/YAK METAR and TAF weather

Enter ICAO airport designator
Station Type Date Time Source
PAYA METAR 2020/01/21 18:49 UTC NOAA

PAYA 211849Z AUTO 00000KT 10SM BKN005 OVC110 00/00 A2943 RMK AO2 TSNO


Station Type Date Time Source
PAYA Decoded METAR 2020/01/21 18:49 UTC NOAA

YAKUTAT AIRPORT, AK, United States (PAYA) 59-30N 139-40W 9M
Jan 21, 2020 - 01:49 PM EST / 2020.01.21 1849 UTC
Wind: Calm:0
Visibility: 10 mile(s):0
Sky conditions: overcast
Temperature: 32 F (0 C)
Dew Point: 32 F (0 C)
Relative Humidity: 100%
Pressure (altimeter): 29.43 in. Hg (996 hPa)
ob: PAYA 211849Z AUTO 00000KT 10SM BKN005 OVC110 00/00 A2943 RMK AO2 TSNO
cycle: 19

Station Type Date Time Source
PAYA TAF 2020/01/21 18:42 UTC NOAA

TAF PAYA 211739Z 2118/2218 34003KT P6SM VCSH SCT002 OVC060
TEMPO 2118/2119 00000KT 1SM BR BKN002
FM212300 VRB03KT 6SM -SHRA BR BKN030 OVC050
FM220600 VRB02KT 6SM BR VCSH SCT005 BKN030
AMD LTD TO CLD VIS AND WIND

Example: see airport list